sensor_id;sensor_type;location;lat;lon;timestamp;pressure;altitude;pressure_sealevel;temperature
53667;BMP280;39568;51.026;5.468;2023-02-03T00:01:34;101767.47;;;9.26
53667;BMP280;39568;51.026;5.468;2023-02-03T00:04:01;101753.75;;;9.28
53667;BMP280;39568;51.026;5.468;2023-02-03T00:06:29;101751.09;;;9.28
53667;BMP280;39568;51.026;5.468;2023-02-03T00:08:57;101760.50;;;9.29
53667;BMP280;39568;51.026;5.468;2023-02-03T00:11:28;101742.81;;;9.26
53667;BMP280;39568;51.026;5.468;2023-02-03T00:13:56;101745.78;;;9.28
53667;BMP280;39568;51.026;5.468;2023-02-03T00:16:23;101748.88;;;9.26
53667;BMP280;39568;51.026;5.468;2023-02-03T00:18:50;101747.69;;;9.27
53667;BMP280;39568;51.026;5.468;2023-02-03T00:21:17;101745.03;;;9.27
53667;BMP280;39568;51.026;5.468;2023-02-03T00:23:43;101759.50;;;9.26
53667;BMP280;39568;51.026;5.468;2023-02-03T00:26:12;101746.06;;;9.30
53667;BMP280;39568;51.026;5.468;2023-02-03T00:28:39;101750.94;;;9.31
53667;BMP280;39568;51.026;5.468;2023-02-03T00:31:14;101740.31;;;9.31
53667;BMP280;39568;51.026;5.468;2023-02-03T00:33:41;101732.03;;;9.29
53667;BMP280;39568;51.026;5.468;2023-02-03T00:36:08;101741.50;;;9.30
53667;BMP280;39568;51.026;5.468;2023-02-03T00:38:35;101730.00;;;9.24
53667;BMP280;39568;51.026;5.468;2023-02-03T00:41:02;101744.00;;;9.25
53667;BMP280;39568;51.026;5.468;2023-02-03T00:43:28;101748.13;;;9.26
53667;BMP280;39568;51.026;5.468;2023-02-03T00:45:55;101741.91;;;9.29
53667;BMP280;39568;51.026;5.468;2023-02-03T00:48:23;101730.28;;;9.26
53667;BMP280;39568;51.026;5.468;2023-02-03T00:50:50;101753.44;;;9.26
53667;BMP280;39568;51.026;5.468;2023-02-03T00:53:17;101754.78;;;9.30
53667;BMP280;39568;51.026;5.468;2023-02-03T00:55:44;101755.66;;;9.27
53667;BMP280;39568;51.026;5.468;2023-02-03T00:58:10;101746.50;;;9.28
53667;BMP280;39568;51.026;5.468;2023-02-03T01:00:37;101746.50;;;9.28
53667;BMP280;39568;51.026;5.468;2023-02-03T01:03:04;101747.38;;;9.25
53667;BMP280;39568;51.026;5.468;2023-02-03T01:05:32;101751.97;;;9.25
53667;BMP280;39568;51.026;5.468;2023-02-03T01:07:59;101762.59;;;9.25
53667;BMP280;39568;51.026;5.468;2023-02-03T01:10:26;101758.31;;;9.27
53667;BMP280;39568;51.026;5.468;2023-02-03T01:12:53;101765.72;;;9.23
53667;BMP280;39568;51.026;5.468;2023-02-03T01:15:20;101763.06;;;9.23
53667;BMP280;39568;51.026;5.468;2023-02-03T01:17:46;101774.84;;;9.22
53667;BMP280;39568;51.026;5.468;2023-02-03T01:20:13;101781.03;;;9.28
53667;BMP280;39568;51.026;5.468;2023-02-03T01:22:42;101770.72;;;9.21
53667;BMP280;39568;51.026;5.468;2023-02-03T01:25:09;101776.34;;;9.23
53667;BMP280;39568;51.026;5.468;2023-02-03T01:27:36;101783.41;;;9.17
53667;BMP280;39568;51.026;5.468;2023-02-03T01:30:03;101771.31;;;9.16
53667;BMP280;39568;51.026;5.468;2023-02-03T01:32:30;101772.78;;;9.17
53667;BMP280;39568;51.026;5.468;2023-02-03T01:34:57;101779.75;;;9.15
53667;BMP280;39568;51.026;5.468;2023-02-03T01:37:23;101779.28;;;9.16
53667;BMP280;39568;51.026;5.468;2023-02-03T01:39:51;101786.81;;;9.18
53667;BMP280;39568;51.026;5.468;2023-02-03T01:42:18;101798.16;;;9.18
53667;BMP280;39568;51.026;5.468;2023-02-03T01:44:47;101796.09;;;9.22
53667;BMP280;39568;51.026;5.468;2023-02-03T01:47:22;101785.47;;;9.22
53667;BMP280;39568;51.026;5.468;2023-02-03T01:49:53;101790.19;;;9.27
53667;BMP280;39568;51.026;5.468;2023-02-03T01:52:22;101783.41;;;9.26
53667;BMP280;39568;51.026;5.468;2023-02-03T01:54:52;101768.06;;;9.21
53667;BMP280;39568;51.026;5.468;2023-02-03T01:57:23;101783.84;;;9.25
53667;BMP280;39568;51.026;5.468;2023-02-03T01:59:53;101786.06;;;9.26
53667;BMP280;39568;51.026;5.468;2023-02-03T02:02:20;101789.88;;;9.25
53667;BMP280;39568;51.026;5.468;2023-02-03T02:04:52;101768.63;;;9.25
53667;BMP280;39568;51.026;5.468;2023-02-03T02:07:20;101783.84;;;9.25
53667;BMP280;39568;51.026;5.468;2023-02-03T02:09:47;101768.63;;;9.25
53667;BMP280;39568;51.026;5.468;2023-02-03T02:12:16;101761.41;;;9.26
53667;BMP280;39568;51.026;5.468;2023-02-03T02:14:43;101764.81;;;9.26
53667;BMP280;39568;51.026;5.468;2023-02-03T02:17:19;101774.53;;;9.29
53667;BMP280;39568;51.026;5.468;2023-02-03T02:23:04;101771.59;;;9.27
53667;BMP280;39568;51.026;5.468;2023-02-03T02:25:59;101758.31;;;9.27
53667;BMP280;39568;51.026;5.468;2023-02-03T02:28:46;101771.59;;;9.27
53667;BMP280;39568;51.026;5.468;2023-02-03T02:34:14;101756.53;;;9.33
53667;BMP280;39568;51.026;5.468;2023-02-03T02:36:54;101754.03;;;9.30
53667;BMP280;39568;51.026;5.468;2023-02-03T02:39:31;101742.97;;;9.31
53667;BMP280;39568;51.026;5.468;2023-02-03T02:42:07;101747.09;;;9.32
53667;BMP280;39568;51.026;5.468;2023-02-03T02:44:40;101747.97;;;9.29
53667;BMP280;39568;51.026;5.468;2023-02-03T02:47:15;101738.25;;;9.26
53667;BMP280;39568;51.026;5.468;2023-02-03T02:49:49;101734.41;;;9.27
53667;BMP280;39568;51.026;5.468;2023-02-03T02:52:18;101729.38;;;9.29
53667;BMP280;39568;51.026;5.468;2023-02-03T02:54:49;101730.56;;;9.28
53667;BMP280;39568;51.026;5.468;2023-02-03T02:57:17;101747.97;;;9.29
53667;BMP280;39568;51.026;5.468;2023-02-03T02:59:46;101753.13;;;9.33
53667;BMP280;39568;51.026;5.468;2023-02-03T03:02:13;101765.69;;;9.32
53667;BMP280;39568;51.026;5.468;2023-02-03T03:04:41;101766.13;;;9.31
53667;BMP280;39568;51.026;5.468;2023-02-03T03:07:13;101750.03;;;9.34
53667;BMP280;39568;51.026;5.468;2023-02-03T03:09:45;101752.41;;;9.32
53667;BMP280;39568;51.026;5.468;2023-02-03T03:12:15;101755.34;;;9.34
53667;BMP280;39568;51.026;5.468;2023-02-03T03:14:45;101745.72;;;9.37
53667;BMP280;39568;51.026;5.468;2023-02-03T03:17:20;101742.50;;;9.33
53667;BMP280;39568;51.026;5.468;2023-02-03T03:19:52;101750.34;;;9.27
53667;BMP280;39568;51.026;5.468;2023-02-03T03:22:26;101758.75;;;9.26
53667;BMP280;39568;51.026;5.468;2023-02-03T03:24:59;101759.34;;;9.30
53667;BMP280;39568;51.026;5.468;2023-02-03T03:27:30;101776.75;;;9.31
53667;BMP280;39568;51.026;5.468;2023-02-03T03:30:02;101773.63;;;9.32
53667;BMP280;39568;51.026;5.468;2023-02-03T03:32:31;101774.50;;;9.38
53667;BMP280;39568;51.026;5.468;2023-02-03T03:34:58;101779.25;;;9.34
53667;BMP280;39568;51.026;5.468;2023-02-03T03:37:33;101780.16;;;9.31
53667;BMP280;39568;51.026;5.468;2023-02-03T03:40:06;101775.69;;;9.37
53667;BMP280;39568;51.026;5.468;2023-02-03T03:42:38;101754.78;;;9.30
53667;BMP280;39568;51.026;5.468;2023-02-03T03:45:12;101756.25;;;9.31
53667;BMP280;39568;51.026;5.468;2023-02-03T03:47:43;101747.09;;;9.32
53667;BMP280;39568;51.026;5.468;2023-02-03T03:50:17;101761.56;;;9.31
53667;BMP280;39568;51.026;5.468;2023-02-03T03:52:47;101754.78;;;9.30
53667;BMP280;39568;51.026;5.468;2023-02-03T03:55:15;101773.78;;;9.29
53667;BMP280;39568;51.026;5.468;2023-02-03T03:57:46;101776.75;;;9.31
53667;BMP280;39568;51.026;5.468;2023-02-03T04:00:16;101785.00;;;9.33
53667;BMP280;39568;51.026;5.468;2023-02-03T04:02:47;101772.34;;;9.28
53667;BMP280;39568;51.026;5.468;2023-02-03T04:05:17;101732.03;;;9.29
53667;BMP280;39568;51.026;5.468;2023-02-03T04:07:46;101746.38;;;9.32
53667;BMP280;39568;51.026;5.468;2023-02-03T04:10:19;101712.28;;;9.30
53667;BMP280;39568;51.026;5.468;2023-02-03T04:12:47;101723.91;;;9.33
53667;BMP280;39568;51.026;5.468;2023-02-03T04:15:14;101718.31;;;9.31
53667;BMP280;39568;51.026;5.468;2023-02-03T04:17:40;101719.50;;;9.30
53667;BMP280;39568;51.026;5.468;2023-02-03T04:20:08;101709.31;;;9.28
53667;BMP280;39568;51.026;5.468;2023-02-03T04:22:35;101717.75;;;9.27
53667;BMP280;39568;51.026;5.468;2023-02-03T04:25:03;101728.22;;;9.30
53667;BMP280;39568;51.026;5.468;2023-02-03T04:27:30;101741.50;;;9.30
53667;BMP280;39568;51.026;5.468;2023-02-03T04:29:57;101728.50;;;9.32
53667;BMP280;39568;51.026;5.468;2023-02-03T04:32:24;101731.16;;;9.32
53667;BMP280;39568;51.026;5.468;2023-02-03T04:34:50;101734.25;;;9.31
53667;BMP280;39568;51.026;5.468;2023-02-03T04:37:17;101733.81;;;9.32
53667;BMP280;39568;51.026;5.468;2023-02-03T04:39:45;101741.78;;;9.32
53667;BMP280;39568;51.026;5.468;2023-02-03T04:42:13;101737.94;;;9.33
53667;BMP280;39568;51.026;5.468;2023-02-03T04:44:40;101754.16;;;9.35
53667;BMP280;39568;51.026;5.468;2023-02-03T04:47:06;101752.94;;;9.36
53667;BMP280;39568;51.026;5.468;2023-02-03T04:49:33;101754.44;;;9.37
53667;BMP280;39568;51.026;5.468;2023-02-03T04:52:00;101761.97;;;9.39
53667;BMP280;39568;51.026;5.468;2023-02-03T04:54:26;101757.09;;;9.37
53667;BMP280;39568;51.026;5.468;2023-02-03T04:56:53;101757.09;;;9.37
53667;BMP280;39568;51.026;5.468;2023-02-03T04:59:21;101746.19;;;9.35
53667;BMP280;39568;51.026;5.468;2023-02-03T05:01:48;101750.03;;;9.34
53667;BMP280;39568;51.026;5.468;2023-02-03T05:04:15;101758.44;;;9.33
53667;BMP280;39568;51.026;5.468;2023-02-03T05:06:41;101735.28;;;9.33
53667;BMP280;39568;51.026;5.468;2023-02-03T05:09:08;101755.91;;;9.38
53667;BMP280;39568;51.026;5.468;2023-02-03T05:11:35;101735.09;;;9.37
53667;BMP280;39568;51.026;5.468;2023-02-03T05:14:02;101739.69;;;9.36
53667;BMP280;39568;51.026;5.468;2023-02-03T05:16:30;101722.28;;;9.35
53667;BMP280;39568;51.026;5.468;2023-02-03T05:18:56;101729.69;;;9.31
53667;BMP280;39568;51.026;5.468;2023-02-03T05:21:23;101732.91;;;9.35
53667;BMP280;39568;51.026;5.468;2023-02-03T05:23:50;101751.34;;;9.39
53667;BMP280;39568;51.026;5.468;2023-02-03T05:26:16;101759.00;;;9.37
53667;BMP280;39568;51.026;5.468;2023-02-03T05:28:43;101747.81;;;9.33
53667;BMP280;39568;51.026;5.468;2023-02-03T05:31:10;101754.16;;;9.35
53667;BMP280;39568;51.026;5.468;2023-02-03T05:33:38;101749.88;;;9.38
53667;BMP280;39568;51.026;5.468;2023-02-03T05:36:05;101749.31;;;9.34
53667;BMP280;39568;51.026;5.468;2023-02-03T05:38:32;101753.41;;;9.35
53667;BMP280;39568;51.026;5.468;2023-02-03T05:40:59;101736.75;;;9.34
53667;BMP280;39568;51.026;5.468;2023-02-03T05:43:43;101746.81;;;9.30
53667;BMP280;39568;51.026;5.468;2023-02-03T05:46:10;101746.81;;;9.30
53667;BMP280;39568;51.026;5.468;2023-02-03T05:48:38;101755.66;;;9.27
53667;BMP280;39568;51.026;5.468;2023-02-03T05:51:04;101763.16;;;9.29
53667;BMP280;39568;51.026;5.468;2023-02-03T05:53:31;101779.09;;;9.29
53667;BMP280;39568;51.026;5.468;2023-02-03T05:55:58;101770.84;;;9.27
53667;BMP280;39568;51.026;5.468;2023-02-03T05:58:24;101767.31;;;9.30
53667;BMP280;39568;51.026;5.468;2023-02-03T06:00:51;101772.19;;;9.31
53667;BMP280;39568;51.026;5.468;2023-02-03T06:03:18;101788.13;;;9.31
53667;BMP280;39568;51.026;5.468;2023-02-03T06:05:46;101789.16;;;9.34
53667;BMP280;39568;51.026;5.468;2023-02-03T06:08:13;101785.56;;;9.37
53667;BMP280;39568;51.026;5.468;2023-02-03T06:10:39;101796.38;;;9.33
53667;BMP280;39568;51.026;5.468;2023-02-03T06:13:08;101790.59;;;9.35
53667;BMP280;39568;51.026;5.468;2023-02-03T06:15:35;101781.19;;;9.34
53667;BMP280;39568;51.026;5.468;2023-02-03T06:18:02;101775.41;;;9.35
53667;BMP280;39568;51.026;5.468;2023-02-03T06:20:28;101779.53;;;9.36
53667;BMP280;39568;51.026;5.468;2023-02-03T06:22:56;101785.28;;;9.35
53667;BMP280;39568;51.026;5.468;2023-02-03T06:25:23;101784.28;;;9.32
53667;BMP280;39568;51.026;5.468;2023-02-03T06:27:50;101785.47;;;9.31
53667;BMP280;39568;51.026;5.468;2023-02-03T06:30:17;101789.88;;;9.34
53667;BMP280;39568;51.026;5.468;2023-02-03T06:32:44;101777.03;;;9.33
53667;BMP280;39568;51.026;5.468;2023-02-03T06:35:11;101787.22;;;9.34
53667;BMP280;39568;51.026;5.468;2023-02-03T06:37:38;101777.78;;;9.33
53667;BMP280;39568;51.026;5.468;2023-02-03T06:40:09;101779.53;;;9.36
53667;BMP280;39568;51.026;5.468;2023-02-03T06:42:36;101776.00;;;9.30
53667;BMP280;39568;51.026;5.468;2023-02-03T06:45:03;101776.59;;;9.34
53667;BMP280;39568;51.026;5.468;2023-02-03T06:47:30;101765.25;;;9.34
53667;BMP280;39568;51.026;5.468;2023-02-03T06:49:56;101763.03;;;9.32
53667;BMP280;39568;51.026;5.468;2023-02-03T06:52:23;101769.81;;;9.33
53667;BMP280;39568;51.026;5.468;2023-02-03T06:54:50;101766.41;;;9.33
53667;BMP280;39568;51.026;5.468;2023-02-03T06:57:18;101780.25;;;9.37
53667;BMP280;39568;51.026;5.468;2023-02-03T06:59:45;101784.56;;;9.34
53667;BMP280;39568;51.026;5.468;2023-02-03T07:02:11;101782.19;;;9.36
53667;BMP280;39568;51.026;5.468;2023-02-03T07:04:38;101768.47;;;9.38
53667;BMP280;39568;51.026;5.468;2023-02-03T07:07:05;101754.44;;;9.37
53667;BMP280;39568;51.026;5.468;2023-02-03T07:09:31;101756.81;;;9.35
53667;BMP280;39568;51.026;5.468;2023-02-03T07:11:58;101750.75;;;9.35
53667;BMP280;39568;51.026;5.468;2023-02-03T07:14:26;101751.22;;;9.33
53667;BMP280;39568;51.026;5.468;2023-02-03T07:16:55;101758.25;;;9.36
53667;BMP280;39568;51.026;5.468;2023-02-03T07:19:21;101760.66;;;9.34
53667;BMP280;39568;51.026;5.468;2023-02-03T07:21:48;101753.88;;;9.33
53667;BMP280;39568;51.026;5.468;2023-02-03T07:24:15;101744.72;;;9.34
53667;BMP280;39568;51.026;5.468;2023-02-03T07:26:41;101754.75;;;9.39
53667;BMP280;39568;51.026;5.468;2023-02-03T07:29:08;101745.44;;;9.35
53667;BMP280;39568;51.026;5.468;2023-02-03T07:31:36;101752.09;;;9.39
53667;BMP280;39568;51.026;5.468;2023-02-03T07:34:03;101753.53;;;9.40
53667;BMP280;39568;51.026;5.468;2023-02-03T07:36:30;101763.28;;;9.43
53667;BMP280;39568;51.026;5.468;2023-02-03T07:38:57;101773.00;;;9.46
53667;BMP280;39568;51.026;5.468;2023-02-03T07:41:24;101782.16;;;9.45
53667;BMP280;39568;51.026;5.468;2023-02-03T07:43:50;101782.16;;;9.45
53667;BMP280;39568;51.026;5.468;2023-02-03T07:46:17;101800.16;;;9.50
53667;BMP280;39568;51.026;5.468;2023-02-03T07:48:45;101796.47;;;9.48
53667;BMP280;39568;51.026;5.468;2023-02-03T07:51:12;101795.28;;;9.49
53667;BMP280;39568;51.026;5.468;2023-02-03T07:53:38;101797.94;;;9.49
53667;BMP280;39568;51.026;5.468;2023-02-03T07:56:05;101802.19;;;9.55
53667;BMP280;39568;51.026;5.468;2023-02-03T07:58:32;101804.84;;;9.55
53667;BMP280;39568;51.026;5.468;2023-02-03T08:00:59;101808.25;;;9.56
53667;BMP280;39568;51.026;5.468;2023-02-03T08:03:25;101799.72;;;9.52
53667;BMP280;39568;51.026;5.468;2023-02-03T08:05:53;101816.69;;;9.54
53667;BMP280;39568;51.026;5.468;2023-02-03T08:08:20;101803.81;;;9.53
53667;BMP280;39568;51.026;5.468;2023-02-03T08:10:47;101803.56;;;9.51
53667;BMP280;39568;51.026;5.468;2023-02-03T08:13:14;101810.63;;;9.54
53667;BMP280;39568;51.026;5.468;2023-02-03T08:15:40;101806.03;;;9.54
53667;BMP280;39568;51.026;5.468;2023-02-03T08:18:07;101802.09;;;9.50
53667;BMP280;39568;51.026;5.468;2023-02-03T08:20:34;101824.66;;;9.54
53667;BMP280;39568;51.026;5.468;2023-02-03T08:23:02;101831.13;;;9.53
53667;BMP280;39568;51.026;5.468;2023-02-03T08:25:29;101830.41;;;9.53
53667;BMP280;39568;51.026;5.468;2023-02-03T08:27:56;101834.06;;;9.55
53667;BMP280;39568;51.026;5.468;2023-02-03T08:30:23;101840.44;;;9.58
53667;BMP280;39568;51.026;5.468;2023-02-03T08:32:50;101843.09;;;9.58
53667;BMP280;39568;51.026;5.468;2023-02-03T08:35:17;101828.63;;;9.59
53667;BMP280;39568;51.026;5.468;2023-02-03T08:37:44;101825.53;;;9.61
53667;BMP280;39568;51.026;5.468;2023-02-03T08:40:12;101827.84;;;9.68
53667;BMP280;39568;51.026;5.468;2023-02-03T08:42:39;101846.78;;;9.61
53667;BMP280;39568;51.026;5.468;2023-02-03T08:45:06;101845.00;;;9.57
53667;BMP280;39568;51.026;5.468;2023-02-03T08:47:33;101852.66;;;9.65
53667;BMP280;39568;51.026;5.468;2023-02-03T08:50:01;101833.16;;;9.68
53667;BMP280;39568;51.026;5.468;2023-02-03T08:52:28;101861.53;;;9.62
53667;BMP280;39568;51.026;5.468;2023-02-03T08:54:55;101845.28;;;9.59
53667;BMP280;39568;51.026;5.468;2023-02-03T08:57:23;101857.22;;;9.64
53667;BMP280;39568;51.026;5.468;2023-02-03T08:59:49;101859.75;;;9.68
53667;BMP280;39568;51.026;5.468;2023-02-03T09:02:18;101861.22;;;9.69
53667;BMP280;39568;51.026;5.468;2023-02-03T09:04:45;101868.31;;;9.63
53667;BMP280;39568;51.026;5.468;2023-02-03T09:07:13;101869.50;;;9.62
53667;BMP280;39568;51.026;5.468;2023-02-03T09:09:41;101873.34;;;9.61
53667;BMP280;39568;51.026;5.468;2023-02-03T09:12:08;101875.25;;;9.60
53667;BMP280;39568;51.026;5.468;2023-02-03T09:14:38;101866.69;;;9.56
53667;BMP280;39568;51.026;5.468;2023-02-03T09:17:05;101886.03;;;9.56
53667;BMP280;39568;51.026;5.468;2023-02-03T09:19:33;101893.41;;;9.52
53667;BMP280;39568;51.026;5.468;2023-02-03T09:21:59;101891.81;;;9.46
53667;BMP280;39568;51.026;5.468;2023-02-03T09:24:26;101897.88;;;9.46
53667;BMP280;39568;51.026;5.468;2023-02-03T09:26:53;101878.41;;;9.40
53667;BMP280;39568;51.026;5.468;2023-02-03T09:29:20;101886.69;;;9.33
53667;BMP280;39568;51.026;5.468;2023-02-03T09:31:49;101868.84;;;9.25
53667;BMP280;39568;51.026;5.468;2023-02-03T09:34:17;101878.72;;;9.24
53667;BMP280;39568;51.026;5.468;2023-02-03T09:36:44;101865.91;;;9.23
53667;BMP280;39568;51.026;5.468;2023-02-03T09:39:11;101861.63;;;9.16
53667;BMP280;39568;51.026;5.468;2023-02-03T09:41:54;101859.09;;;9.13
53667;BMP280;39568;51.026;5.468;2023-02-03T09:44:28;101861.63;;;9.16
53667;BMP280;39568;51.026;5.468;2023-02-03T09:47:02;101864.88;;;9.11
53667;BMP280;39568;51.026;5.468;2023-02-03T09:49:36;101856.00;;;9.05
53667;BMP280;39568;51.026;5.468;2023-02-03T09:52:08;101862.50;;;9.13
53667;BMP280;39568;51.026;5.468;2023-02-03T09:54:41;101877.69;;;9.13
53667;BMP280;39568;51.026;5.468;2023-02-03T09:57:14;101875.50;;;9.11
53667;BMP280;39568;51.026;5.468;2023-02-03T09:59:43;101875.19;;;9.09
53667;BMP280;39568;51.026;5.468;2023-02-03T10:02:23;101870.94;;;9.12
53667;BMP280;39568;51.026;5.468;2023-02-03T10:04:55;101883.47;;;9.11
53667;BMP280;39568;51.026;5.468;2023-02-03T10:07:31;101874.88;;;9.16
53667;BMP280;39568;51.026;5.468;2023-02-03T10:10:04;101894.09;;;9.20
53667;BMP280;39568;51.026;5.468;2023-02-03T10:12:45;101885.06;;;9.27
53667;BMP280;39568;51.026;5.468;2023-02-03T10:15:41;101897.88;;;9.37
53667;BMP280;39568;51.026;5.468;2023-02-03T10:18:13;101893.47;;;9.34
53667;BMP280;39568;51.026;5.468;2023-02-03T10:20:46;101898.91;;;9.40
53667;BMP280;39568;51.026;5.468;2023-02-03T10:23:15;101909.69;;;9.45
53667;BMP280;39568;51.026;5.468;2023-02-03T10:25:44;101903.78;;;9.50
53667;BMP280;39568;51.026;5.468;2023-02-03T10:28:16;101912.34;;;9.45
53667;BMP280;39568;51.026;5.468;2023-02-03T10:30:47;101913.97;;;9.52
53667;BMP280;39568;51.026;5.468;2023-02-03T10:33:17;101918.25;;;9.49
53667;BMP280;39568;51.026;5.468;2023-02-03T10:35:48;101916.75;;;9.48
53667;BMP280;39568;51.026;5.468;2023-02-03T10:38:23;101931.38;;;9.53
53667;BMP280;39568;51.026;5.468;2023-02-03T10:40:52;101937.00;;;9.55
53667;BMP280;39568;51.026;5.468;2023-02-03T10:43:19;101937.13;;;9.61
53667;BMP280;39568;51.026;5.468;2023-02-03T10:46:03;101932.69;;;9.57
53667;BMP280;39568;51.026;5.468;2023-02-03T10:48:31;101935.94;;;9.62
53667;BMP280;39568;51.026;5.468;2023-02-03T10:50:58;101937.84;;;9.61
53667;BMP280;39568;51.026;5.468;2023-02-03T10:53:32;101914.38;;;9.59
53667;BMP280;39568;51.026;5.468;2023-02-03T10:56:02;101907.56;;;9.68
53667;BMP280;39568;51.026;5.468;2023-02-03T10:58:31;101908.03;;;9.66
53667;BMP280;39568;51.026;5.468;2023-02-03T11:01:05;101893.84;;;9.78
53667;BMP280;39568;51.026;5.468;2023-02-03T11:03:34;101914.19;;;9.81
53667;BMP280;39568;51.026;5.468;2023-02-03T11:06:06;101919.06;;;9.83
53667;BMP280;39568;51.026;5.468;2023-02-03T11:08:33;101908.72;;;9.85
53667;BMP280;39568;51.026;5.468;2023-02-03T11:11:05;101900.47;;;9.83
53667;BMP280;39568;51.026;5.468;2023-02-03T11:13:32;101889.50;;;9.90
53667;BMP280;39568;51.026;5.468;2023-02-03T11:16:00;101900.31;;;9.86
53667;BMP280;39568;51.026;5.468;2023-02-03T11:18:36;101903.38;;;9.94
53667;BMP280;39568;51.026;5.468;2023-02-03T11:21:22;101888.25;;;10.09
53667;BMP280;39568;51.026;5.468;2023-02-03T11:23:56;101888.84;;;10.04
53667;BMP280;39568;51.026;5.468;2023-02-03T11:26:28;101883.53;;;10.04
53667;BMP280;39568;51.026;5.468;2023-02-03T11:28:57;101890.91;;;10.09
53667;BMP280;39568;51.026;5.468;2023-02-03T11:31:26;101881.75;;;10.10
53667;BMP280;39568;51.026;5.468;2023-02-03T11:33:57;101891.25;;;10.02
53667;BMP280;39568;51.026;5.468;2023-02-03T11:36:26;101879.53;;;10.08
53667;BMP280;39568;51.026;5.468;2023-02-03T11:39:08;101886.75;;;10.08
53667;BMP280;39568;51.026;5.468;2023-02-03T11:41:36;101897.25;;;10.11
53667;BMP280;39568;51.026;5.468;2023-02-03T11:44:10;101904.06;;;10.03
53667;BMP280;39568;51.026;5.468;2023-02-03T11:46:37;101898.56;;;10.07
53667;BMP280;39568;51.026;5.468;2023-02-03T11:49:17;101893.25;;;10.07
53667;BMP280;39568;51.026;5.468;2023-02-03T11:51:50;101898.00;;;10.03
53667;BMP280;39568;51.026;5.468;2023-02-03T11:54:26;101898.91;;;10.00
53667;BMP280;39568;51.026;5.468;2023-02-03T11:57:05;101891.25;;;10.02
53667;BMP280;39568;51.026;5.468;2023-02-03T11:59:50;101895.47;;;10.08
53667;BMP280;39568;51.026;5.468;2023-02-03T12:02:48;101898.97;;;10.14
53667;BMP280;39568;51.026;5.468;2023-02-03T12:05:35;101896.38;;;10.05
53667;BMP280;39568;51.026;5.468;2023-02-03T12:08:16;101923.16;;;10.02
53667;BMP280;39568;51.026;5.468;2023-02-03T12:10:56;101905.97;;;10.12
53667;BMP280;39568;51.026;5.468;2023-02-03T12:13:38;101908.00;;;10.17
53667;BMP280;39568;51.026;5.468;2023-02-03T12:16:26;101908.16;;;10.13
53667;BMP280;39568;51.026;5.468;2023-02-03T12:19:04;101909.06;;;10.10
53667;BMP280;39568;51.026;5.468;2023-02-03T12:33:57;101913.22;;;10.35
53667;BMP280;39568;51.026;5.468;2023-02-03T12:36:28;101912.66;;;10.31
53667;BMP280;39568;51.026;5.468;2023-02-03T12:39:00;101914.47;;;10.25
53667;BMP280;39568;51.026;5.468;2023-02-03T12:41:33;101902.34;;;10.24
53667;BMP280;39568;51.026;5.468;2023-02-03T12:44:16;101888.63;;;10.26
53667;BMP280;39568;51.026;5.468;2023-02-03T12:46:45;101902.34;;;10.24
53667;BMP280;39568;51.026;5.468;2023-02-03T12:49:28;101895.53;;;10.23
53667;BMP280;39568;51.026;5.468;2023-02-03T12:52:00;101886.38;;;10.24
53667;BMP280;39568;51.026;5.468;2023-02-03T12:54:35;101898.78;;;10.27
53667;BMP280;39568;51.026;5.468;2023-02-03T12:57:11;101903.50;;;10.32
53667;BMP280;39568;51.026;5.468;2023-02-03T12:59:41;101902.19;;;10.28
53667;BMP280;39568;51.026;5.468;2023-02-03T13:02:14;101904.56;;;10.26
53667;BMP280;39568;51.026;5.468;2023-02-03T13:04:47;101905.00;;;10.24
53667;BMP280;39568;51.026;5.468;2023-02-03T13:07:21;101908.25;;;10.28
53667;BMP280;39568;51.026;5.468;2023-02-03T13:09:57;101904.56;;;10.26
53667;BMP280;39568;51.026;5.468;2023-02-03T13:12:27;101916.81;;;10.23
53667;BMP280;39568;51.026;5.468;2023-02-03T13:15:01;101910.59;;;10.26
53667;BMP280;39568;51.026;5.468;2023-02-03T13:17:33;101908.81;;;10.32
53667;BMP280;39568;51.026;5.468;2023-02-03T13:20:13;101920.94;;;10.33
53667;BMP280;39568;51.026;5.468;2023-02-03T13:22:41;101913.28;;;10.26
53667;BMP280;39568;51.026;5.468;2023-02-03T13:25:16;101911.81;;;10.25
53667;BMP280;39568;51.026;5.468;2023-02-03T13:27:48;101909.16;;;10.25
53667;BMP280;39568;51.026;5.468;2023-02-03T13:30:37;101934.69;;;10.32
53667;BMP280;39568;51.026;5.468;2023-02-03T13:39:23;101916.66;;;10.27
53667;BMP280;39568;51.026;5.468;2023-02-03T13:41:54;101921.56;;;10.28
53667;BMP280;39568;51.026;5.468;2023-02-03T13:44:25;101921.09;;;10.30
53667;BMP280;39568;51.026;5.468;2023-02-03T13:46:55;101927.44;;;10.32
53667;BMP280;39568;51.026;5.468;2023-02-03T13:49:26;101909.56;;;10.33
53667;BMP280;39568;51.026;5.468;2023-02-03T13:51:56;101917.22;;;10.31
53667;BMP280;39568;51.026;5.468;2023-02-03T13:54:27;101921.81;;;10.30
53667;BMP280;39568;51.026;5.468;2023-02-03T13:56:57;101907.47;;;10.37
53667;BMP280;39568;51.026;5.468;2023-02-03T13:59:28;101904.97;;;10.33
53667;BMP280;39568;51.026;5.468;2023-02-03T14:04:59;101924.47;;;10.30
53667;BMP280;39568;51.026;5.468;2023-02-03T14:07:30;101911.13;;;10.39
53667;BMP280;39568;51.026;5.468;2023-02-03T14:10:14;101913.22;;;10.35
53667;BMP280;39568;51.026;5.468;2023-02-03T14:12:54;101913.53;;;10.37
53667;BMP280;39568;51.026;5.468;2023-02-03T14:15:30;101907.47;;;10.37
53667;BMP280;39568;51.026;5.468;2023-02-03T14:18:00;101912.31;;;10.38
53667;BMP280;39568;51.026;5.468;2023-02-03T14:20:39;101924.19;;;10.37
53667;BMP280;39568;51.026;5.468;2023-02-03T14:23:12;101926.09;;;10.37
53667;BMP280;39568;51.026;5.468;2023-02-03T14:25:41;101929.50;;;10.37
53667;BMP280;39568;51.026;5.468;2023-02-03T14:28:11;101939.22;;;10.40
53667;BMP280;39568;51.026;5.468;2023-02-03T14:31:04;101926.66;;;10.41
53667;BMP280;39568;51.026;5.468;2023-02-03T14:33:51;101942.22;;;10.33
53667;BMP280;39568;51.026;5.468;2023-02-03T14:36:28;101940.16;;;10.37
53667;BMP280;39568;51.026;5.468;2023-02-03T14:38:58;101950.47;;;10.35
53667;BMP280;39568;51.026;5.468;2023-02-03T14:41:33;101942.81;;;10.37
53667;BMP280;39568;51.026;5.468;2023-02-03T14:44:11;101952.88;;;10.33
53667;BMP280;39568;51.026;5.468;2023-02-03T14:46:52;101947.53;;;10.33
53667;BMP280;39568;51.026;5.468;2023-02-03T14:49:39;101945.63;;;10.34
53667;BMP280;39568;51.026;5.468;2023-02-03T14:52:21;101945.03;;;10.30